sensor_id;sensor_type;location;lat;lon;timestamp;P1;durP1;ratioP1;P2;durP2;ratioP2
52946;SDS011;45776;40.400;17.260;2023-03-01T00:02:11;28.25;;;6.93;;
52946;SDS011;45776;40.400;17.260;2023-03-01T00:04:36;27.95;;;5.75;;
52946;SDS011;45776;40.400;17.260;2023-03-01T00:07:01;32.83;;;6.45;;
52946;SDS011;45776;40.400;17.260;2023-03-01T00:09:26;30.23;;;5.82;;
52946;SDS011;45776;40.400;17.260;2023-03-01T00:11:52;29.75;;;6.47;;
52946;SDS011;45776;40.400;17.260;2023-03-01T00:14:17;29.77;;;7.00;;
52946;SDS011;45776;40.400;17.260;2023-03-01T00:16:43;29.63;;;6.90;;
52946;SDS011;45776;40.400;17.260;2023-03-01T00:19:13;21.77;;;6.72;;
52946;SDS011;45776;40.400;17.260;2023-03-01T00:21:38;27.20;;;6.63;;
52946;SDS011;45776;40.400;17.260;2023-03-01T00:24:04;23.85;;;6.10;;
52946;SDS011;45776;40.400;17.260;2023-03-01T00:26:29;26.60;;;6.32;;
52946;SDS011;45776;40.400;17.260;2023-03-01T00:28:56;23.35;;;6.07;;
52946;SDS011;45776;40.400;17.260;2023-03-01T00:31:23;29.70;;;6.85;;
52946;SDS011;45776;40.400;17.260;2023-03-01T00:33:51;23.73;;;6.50;;
52946;SDS011;45776;40.400;17.260;2023-03-01T00:36:17;36.75;;;6.20;;
52946;SDS011;45776;40.400;17.260;2023-03-01T00:38:43;30.88;;;6.00;;
52946;SDS011;45776;40.400;17.260;2023-03-01T00:41:14;26.98;;;6.32;;
52946;SDS011;45776;40.400;17.260;2023-03-01T00:43:39;29.90;;;7.43;;
52946;SDS011;45776;40.400;17.260;2023-03-01T00:46:05;20.60;;;5.93;;
52946;SDS011;45776;40.400;17.260;2023-03-01T00:48:31;33.17;;;7.30;;
52946;SDS011;45776;40.400;17.260;2023-03-01T00:50:57;33.53;;;7.20;;
52946;SDS011;45776;40.400;17.260;2023-03-01T00:53:28;19.97;;;7.07;;
52946;SDS011;45776;40.400;17.260;2023-03-01T00:55:53;28.67;;;6.68;;
52946;SDS011;45776;40.400;17.260;2023-03-01T00:58:21;25.05;;;6.85;;
52946;SDS011;45776;40.400;17.260;2023-03-01T01:00:46;39.35;;;7.45;;
52946;SDS011;45776;40.400;17.260;2023-03-01T01:03:12;28.65;;;6.65;;
52946;SDS011;45776;40.400;17.260;2023-03-01T01:05:37;22.40;;;6.65;;
52946;SDS011;45776;40.400;17.260;2023-03-01T01:08:02;38.88;;;7.57;;
52946;SDS011;45776;40.400;17.260;2023-03-01T01:10:28;22.35;;;5.75;;
52946;SDS011;45776;40.400;17.260;2023-03-01T01:12:53;31.13;;;6.88;;
52946;SDS011;45776;40.400;17.260;2023-03-01T01:15:18;28.83;;;5.38;;
52946;SDS011;45776;40.400;17.260;2023-03-01T01:17:43;30.13;;;5.32;;
52946;SDS011;45776;40.400;17.260;2023-03-01T01:20:09;25.60;;;4.95;;
52946;SDS011;45776;40.400;17.260;2023-03-01T01:22:34;29.95;;;4.43;;
52946;SDS011;45776;40.400;17.260;2023-03-01T01:25:00;33.65;;;4.15;;
52946;SDS011;45776;40.400;17.260;2023-03-01T01:27:25;30.30;;;3.25;;
52946;SDS011;45776;40.400;17.260;2023-03-01T01:29:52;29.90;;;4.72;;
52946;SDS011;45776;40.400;17.260;2023-03-01T01:32:17;17.50;;;4.38;;
52946;SDS011;45776;40.400;17.260;2023-03-01T01:34:43;26.92;;;3.97;;
52946;SDS011;45776;40.400;17.260;2023-03-01T01:37:08;40.80;;;4.70;;
52946;SDS011;45776;40.400;17.260;2023-03-01T01:39:36;24.48;;;4.53;;
52946;SDS011;45776;40.400;17.260;2023-03-01T01:42:02;31.88;;;6.00;;
52946;SDS011;45776;40.400;17.260;2023-03-01T01:44:27;41.42;;;5.28;;
52946;SDS011;45776;40.400;17.260;2023-03-01T01:46:55;44.55;;;5.13;;
52946;SDS011;45776;40.400;17.260;2023-03-01T01:51:58;22.45;;;4.05;;
52946;SDS011;45776;40.400;17.260;2023-03-01T01:54:29;30.40;;;4.82;;
52946;SDS011;45776;40.400;17.260;2023-03-01T01:56:58;31.45;;;5.18;;
52946;SDS011;45776;40.400;17.260;2023-03-01T01:59:25;27.85;;;4.20;;
52946;SDS011;45776;40.400;17.260;2023-03-01T02:01:52;25.73;;;3.85;;
52946;SDS011;45776;40.400;17.260;2023-03-01T02:04:18;32.90;;;4.10;;
52946;SDS011;45776;40.400;17.260;2023-03-01T02:06:51;25.40;;;4.25;;
52946;SDS011;45776;40.400;17.260;2023-03-01T02:09:18;24.52;;;4.95;;
52946;SDS011;45776;40.400;17.260;2023-03-01T02:11:43;24.27;;;4.43;;
52946;SDS011;45776;40.400;17.260;2023-03-01T02:14:09;29.48;;;4.05;;
52946;SDS011;45776;40.400;17.260;2023-03-01T02:16:34;30.60;;;4.13;;
52946;SDS011;45776;40.400;17.260;2023-03-01T02:19:00;23.55;;;4.25;;
52946;SDS011;45776;40.400;17.260;2023-03-01T02:21:42;24.13;;;3.85;;
52946;SDS011;45776;40.400;17.260;2023-03-01T02:26:53;20.17;;;3.80;;
52946;SDS011;45776;40.400;17.260;2023-03-01T02:29:20;32.25;;;4.88;;
52946;SDS011;45776;40.400;17.260;2023-03-01T02:31:46;23.42;;;4.32;;
52946;SDS011;45776;40.400;17.260;2023-03-01T02:34:21;34.85;;;3.80;;
52946;SDS011;45776;40.400;17.260;2023-03-01T02:39:17;21.80;;;3.75;;
52946;SDS011;45776;40.400;17.260;2023-03-01T02:41:48;23.40;;;4.18;;
52946;SDS011;45776;40.400;17.260;2023-03-01T02:44:14;27.38;;;4.68;;
52946;SDS011;45776;40.400;17.260;2023-03-01T02:46:44;25.20;;;4.07;;
52946;SDS011;45776;40.400;17.260;2023-03-01T02:49:18;30.42;;;4.47;;
52946;SDS011;45776;40.400;17.260;2023-03-01T02:56:37;30.02;;;4.20;;
52946;SDS011;45776;40.400;17.260;2023-03-01T02:59:02;23.02;;;4.13;;
52946;SDS011;45776;40.400;17.260;2023-03-01T03:01:28;24.42;;;3.65;;
52946;SDS011;45776;40.400;17.260;2023-03-01T03:04:02;21.58;;;3.63;;
52946;SDS011;45776;40.400;17.260;2023-03-01T03:06:27;18.70;;;4.65;;
52946;SDS011;45776;40.400;17.260;2023-03-01T03:08:52;19.60;;;3.85;;
52946;SDS011;45776;40.400;17.260;2023-03-01T03:11:18;24.13;;;4.00;;
52946;SDS011;45776;40.400;17.260;2023-03-01T03:13:43;24.33;;;4.35;;
52946;SDS011;45776;40.400;17.260;2023-03-01T03:16:13;21.83;;;3.58;;
52946;SDS011;45776;40.400;17.260;2023-03-01T03:18:38;26.85;;;4.18;;
52946;SDS011;45776;40.400;17.260;2023-03-01T03:21:03;28.40;;;4.22;;
52946;SDS011;45776;40.400;17.260;2023-03-01T03:23:32;19.58;;;3.90;;
52946;SDS011;45776;40.400;17.260;2023-03-01T03:25:57;27.15;;;3.60;;
52946;SDS011;45776;40.400;17.260;2023-03-01T03:28:22;31.33;;;4.07;;
52946;SDS011;45776;40.400;17.260;2023-03-01T03:30:48;37.15;;;4.78;;
52946;SDS011;45776;40.400;17.260;2023-03-01T03:33:14;24.02;;;4.85;;
52946;SDS011;45776;40.400;17.260;2023-03-01T03:35:41;25.17;;;3.88;;
52946;SDS011;45776;40.400;17.260;2023-03-01T03:38:08;27.83;;;5.57;;
52946;SDS011;45776;40.400;17.260;2023-03-01T03:40:41;27.20;;;4.30;;
52946;SDS011;45776;40.400;17.260;2023-03-01T03:43:07;24.83;;;4.40;;
52946;SDS011;45776;40.400;17.260;2023-03-01T03:45:34;33.95;;;4.70;;
52946;SDS011;45776;40.400;17.260;2023-03-01T03:48:00;31.63;;;4.93;;
52946;SDS011;45776;40.400;17.260;2023-03-01T03:50:26;22.77;;;4.28;;
52946;SDS011;45776;40.400;17.260;2023-03-01T03:52:51;26.33;;;4.30;;
52946;SDS011;45776;40.400;17.260;2023-03-01T03:55:17;26.98;;;4.80;;
52946;SDS011;45776;40.400;17.260;2023-03-01T03:57:44;26.33;;;4.07;;
52946;SDS011;45776;40.400;17.260;2023-03-01T04:00:16;26.10;;;4.18;;
52946;SDS011;45776;40.400;17.260;2023-03-01T04:02:42;29.75;;;4.72;;
52946;SDS011;45776;40.400;17.260;2023-03-01T04:05:08;30.25;;;4.47;;
52946;SDS011;45776;40.400;17.260;2023-03-01T04:07:34;32.53;;;4.63;;
52946;SDS011;45776;40.400;17.260;2023-03-01T04:09:59;22.67;;;4.63;;
52946;SDS011;45776;40.400;17.260;2023-03-01T04:12:24;33.65;;;4.88;;
52946;SDS011;45776;40.400;17.260;2023-03-01T04:14:50;21.90;;;4.22;;
52946;SDS011;45776;40.400;17.260;2023-03-01T04:17:15;29.85;;;4.18;;
52946;SDS011;45776;40.400;17.260;2023-03-01T04:19:40;29.92;;;4.95;;
52946;SDS011;45776;40.400;17.260;2023-03-01T04:22:09;35.92;;;4.78;;
52946;SDS011;45776;40.400;17.260;2023-03-01T04:24:36;42.97;;;4.82;;
52946;SDS011;45776;40.400;17.260;2023-03-01T04:27:01;29.55;;;3.95;;
52946;SDS011;45776;40.400;17.260;2023-03-01T04:29:27;31.58;;;4.22;;
52946;SDS011;45776;40.400;17.260;2023-03-01T04:31:52;31.30;;;5.90;;
52946;SDS011;45776;40.400;17.260;2023-03-01T04:34:17;26.27;;;5.30;;
52946;SDS011;45776;40.400;17.260;2023-03-01T04:36:43;19.73;;;5.00;;
52946;SDS011;45776;40.400;17.260;2023-03-01T04:39:08;32.17;;;5.97;;
52946;SDS011;45776;40.400;17.260;2023-03-01T04:41:37;24.35;;;5.30;;
52946;SDS011;45776;40.400;17.260;2023-03-01T04:44:03;31.35;;;5.03;;
52946;SDS011;45776;40.400;17.260;2023-03-01T04:46:29;24.73;;;5.35;;
52946;SDS011;45776;40.400;17.260;2023-03-01T04:48:54;22.98;;;4.93;;
52946;SDS011;45776;40.400;17.260;2023-03-01T04:51:20;26.98;;;5.07;;
52946;SDS011;45776;40.400;17.260;2023-03-01T04:53:45;22.08;;;5.40;;
52946;SDS011;45776;40.400;17.260;2023-03-01T04:56:11;29.23;;;5.75;;
52946;SDS011;45776;40.400;17.260;2023-03-01T04:58:36;29.67;;;5.95;;
52946;SDS011;45776;40.400;17.260;2023-03-01T05:01:07;27.50;;;4.93;;
52946;SDS011;45776;40.400;17.260;2023-03-01T05:03:39;28.05;;;5.45;;
52946;SDS011;45776;40.400;17.260;2023-03-01T05:06:05;21.23;;;4.38;;
52946;SDS011;45776;40.400;17.260;2023-03-01T05:08:30;16.48;;;4.40;;
52946;SDS011;45776;40.400;17.260;2023-03-01T05:10:59;11.98;;;3.90;;
52946;SDS011;45776;40.400;17.260;2023-03-01T05:13:24;23.00;;;4.55;;
52946;SDS011;45776;40.400;17.260;2023-03-01T05:15:57;19.70;;;3.63;;
52946;SDS011;45776;40.400;17.260;2023-03-01T05:18:23;14.38;;;3.88;;
52946;SDS011;45776;40.400;17.260;2023-03-01T05:20:50;11.43;;;2.72;;
52946;SDS011;45776;40.400;17.260;2023-03-01T05:23:16;15.75;;;5.72;;
52946;SDS011;45776;40.400;17.260;2023-03-01T05:25:43;16.42;;;4.47;;
52946;SDS011;45776;40.400;17.260;2023-03-01T05:28:11;11.23;;;3.22;;
52946;SDS011;45776;40.400;17.260;2023-03-01T05:30:37;10.27;;;2.88;;
52946;SDS011;45776;40.400;17.260;2023-03-01T05:33:04;12.88;;;2.65;;
52946;SDS011;45776;40.400;17.260;2023-03-01T05:35:32;12.70;;;2.22;;
52946;SDS011;45776;40.400;17.260;2023-03-01T05:37:57;7.60;;;2.78;;
52946;SDS011;45776;40.400;17.260;2023-03-01T05:40:23;7.68;;;2.60;;
52946;SDS011;45776;40.400;17.260;2023-03-01T05:42:52;10.35;;;2.50;;
52946;SDS011;45776;40.400;17.260;2023-03-01T05:45:19;13.50;;;3.00;;
52946;SDS011;45776;40.400;17.260;2023-03-01T05:47:44;15.50;;;2.35;;
52946;SDS011;45776;40.400;17.260;2023-03-01T05:50:12;11.10;;;2.08;;
52946;SDS011;45776;40.400;17.260;2023-03-01T05:52:38;10.23;;;2.50;;
52946;SDS011;45776;40.400;17.260;2023-03-01T05:55:03;11.50;;;2.78;;
52946;SDS011;45776;40.400;17.260;2023-03-01T05:57:29;10.73;;;2.75;;
52946;SDS011;45776;40.400;17.260;2023-03-01T05:59:54;12.68;;;2.90;;
52946;SDS011;45776;40.400;17.260;2023-03-01T06:02:20;14.25;;;3.22;;
52946;SDS011;45776;40.400;17.260;2023-03-01T06:04:45;15.68;;;3.15;;
52946;SDS011;45776;40.400;17.260;2023-03-01T06:07:10;23.58;;;3.95;;
52946;SDS011;45776;40.400;17.260;2023-03-01T06:09:36;14.40;;;3.10;;
52946;SDS011;45776;40.400;17.260;2023-03-01T06:12:01;15.55;;;3.20;;
52946;SDS011;45776;40.400;17.260;2023-03-01T06:14:26;14.73;;;3.15;;
52946;SDS011;45776;40.400;17.260;2023-03-01T06:16:52;15.20;;;3.15;;
52946;SDS011;45776;40.400;17.260;2023-03-01T06:19:17;17.75;;;3.00;;
52946;SDS011;45776;40.400;17.260;2023-03-01T06:21:42;17.38;;;3.72;;
52946;SDS011;45776;40.400;17.260;2023-03-01T06:24:08;14.15;;;2.80;;
52946;SDS011;45776;40.400;17.260;2023-03-01T06:26:33;18.02;;;3.92;;
52946;SDS011;45776;40.400;17.260;2023-03-01T06:28:58;23.75;;;4.43;;
52946;SDS011;45776;40.400;17.260;2023-03-01T06:31:23;17.45;;;3.55;;
52946;SDS011;45776;40.400;17.260;2023-03-01T06:33:49;18.13;;;3.10;;
52946;SDS011;45776;40.400;17.260;2023-03-01T06:36:14;16.25;;;3.75;;
52946;SDS011;45776;40.400;17.260;2023-03-01T06:38:43;17.15;;;3.70;;
52946;SDS011;45776;40.400;17.260;2023-03-01T06:41:08;18.77;;;3.88;;
52946;SDS011;45776;40.400;17.260;2023-03-01T06:43:34;19.95;;;3.95;;
52946;SDS011;45776;40.400;17.260;2023-03-01T06:45:59;22.00;;;4.22;;
52946;SDS011;45776;40.400;17.260;2023-03-01T06:48:25;22.88;;;3.88;;
52946;SDS011;45776;40.400;17.260;2023-03-01T06:50:50;17.02;;;4.05;;
52946;SDS011;45776;40.400;17.260;2023-03-01T06:53:16;19.13;;;4.35;;
52946;SDS011;45776;40.400;17.260;2023-03-01T06:55:41;25.08;;;4.63;;
52946;SDS011;45776;40.400;17.260;2023-03-01T06:58:06;20.50;;;3.55;;
52946;SDS011;45776;40.400;17.260;2023-03-01T07:00:32;19.80;;;3.72;;
52946;SDS011;45776;40.400;17.260;2023-03-01T07:03:00;25.30;;;6.13;;
52946;SDS011;45776;40.400;17.260;2023-03-01T07:05:27;26.02;;;5.32;;
52946;SDS011;45776;40.400;17.260;2023-03-01T07:07:52;25.02;;;4.78;;
52946;SDS011;45776;40.400;17.260;2023-03-01T07:10:18;38.45;;;6.05;;
52946;SDS011;45776;40.400;17.260;2023-03-01T07:12:43;34.00;;;5.38;;
52946;SDS011;45776;40.400;17.260;2023-03-01T07:15:09;20.13;;;5.75;;
52946;SDS011;45776;40.400;17.260;2023-03-01T07:17:35;22.98;;;4.82;;
52946;SDS011;45776;40.400;17.260;2023-03-01T07:20:00;24.35;;;4.43;;
52946;SDS011;45776;40.400;17.260;2023-03-01T07:22:25;30.10;;;5.88;;
52946;SDS011;45776;40.400;17.260;2023-03-01T07:24:50;25.45;;;6.82;;
52946;SDS011;45776;40.400;17.260;2023-03-01T07:27:16;46.80;;;5.65;;
52946;SDS011;45776;40.400;17.260;2023-03-01T07:29:41;25.85;;;4.70;;
52946;SDS011;45776;40.400;17.260;2023-03-01T07:32:06;27.85;;;5.57;;
52946;SDS011;45776;40.400;17.260;2023-03-01T07:34:32;19.08;;;4.65;;
52946;SDS011;45776;40.400;17.260;2023-03-01T07:36:57;20.95;;;5.03;;
52946;SDS011;45776;40.400;17.260;2023-03-01T07:39:23;18.42;;;4.40;;
52946;SDS011;45776;40.400;17.260;2023-03-01T07:41:49;25.35;;;5.13;;
52946;SDS011;45776;40.400;17.260;2023-03-01T07:44:14;26.83;;;5.10;;
52946;SDS011;45776;40.400;17.260;2023-03-01T07:46:41;29.00;;;4.13;;
52946;SDS011;45776;40.400;17.260;2023-03-01T07:49:06;25.85;;;4.45;;
52946;SDS011;45776;40.400;17.260;2023-03-01T07:51:32;23.02;;;4.80;;
52946;SDS011;45776;40.400;17.260;2023-03-01T07:53:57;27.70;;;4.70;;
52946;SDS011;45776;40.400;17.260;2023-03-01T07:56:22;27.90;;;4.43;;
52946;SDS011;45776;40.400;17.260;2023-03-01T07:58:48;23.40;;;3.55;;
52946;SDS011;45776;40.400;17.260;2023-03-01T08:01:17;25.63;;;4.80;;
52946;SDS011;45776;40.400;17.260;2023-03-01T08:03:43;22.52;;;4.32;;
52946;SDS011;45776;40.400;17.260;2023-03-01T08:06:11;26.88;;;4.38;;
52946;SDS011;45776;40.400;17.260;2023-03-01T08:08:37;16.40;;;4.00;;
52946;SDS011;45776;40.400;17.260;2023-03-01T08:11:03;15.30;;;3.75;;
52946;SDS011;45776;40.400;17.260;2023-03-01T08:13:28;24.38;;;3.55;;
52946;SDS011;45776;40.400;17.260;2023-03-01T08:15:54;11.82;;;2.78;;
52946;SDS011;45776;40.400;17.260;2023-03-01T08:18:19;18.63;;;3.33;;
52946;SDS011;45776;40.400;17.260;2023-03-01T08:20:45;19.02;;;2.83;;
52946;SDS011;45776;40.400;17.260;2023-03-01T08:23:11;14.80;;;2.92;;
52946;SDS011;45776;40.400;17.260;2023-03-01T08:25:36;15.63;;;3.08;;
52946;SDS011;45776;40.400;17.260;2023-03-01T08:28:01;21.63;;;3.53;;
52946;SDS011;45776;40.400;17.260;2023-03-01T08:30:27;19.45;;;3.30;;
52946;SDS011;45776;40.400;17.260;2023-03-01T08:32:52;25.90;;;3.63;;
52946;SDS011;45776;40.400;17.260;2023-03-01T08:35:18;18.83;;;2.88;;
52946;SDS011;45776;40.400;17.260;2023-03-01T08:37:44;20.77;;;2.67;;
52946;SDS011;45776;40.400;17.260;2023-03-01T08:40:09;15.80;;;3.10;;
52946;SDS011;45776;40.400;17.260;2023-03-01T08:42:35;12.95;;;2.60;;
52946;SDS011;45776;40.400;17.260;2023-03-01T08:45:00;10.98;;;2.40;;
52946;SDS011;45776;40.400;17.260;2023-03-01T08:47:26;19.83;;;3.28;;
52946;SDS011;45776;40.400;17.260;2023-03-01T08:49:51;20.23;;;3.10;;
52946;SDS011;45776;40.400;17.260;2023-03-01T08:52:17;11.68;;;2.58;;
52946;SDS011;45776;40.400;17.260;2023-03-01T08:54:43;10.68;;;2.28;;
52946;SDS011;45776;40.400;17.260;2023-03-01T08:57:08;13.57;;;2.10;;
52946;SDS011;45776;40.400;17.260;2023-03-01T08:59:34;19.38;;;3.40;;
52946;SDS011;45776;40.400;17.260;2023-03-01T09:02:02;16.92;;;2.65;;
52946;SDS011;45776;40.400;17.260;2023-03-01T09:04:27;17.42;;;2.95;;
52946;SDS011;45776;40.400;17.260;2023-03-01T09:06:53;18.02;;;3.00;;
52946;SDS011;45776;40.400;17.260;2023-03-01T09:09:18;18.50;;;3.05;;
52946;SDS011;45776;40.400;17.260;2023-03-01T09:11:44;18.10;;;3.20;;
52946;SDS011;45776;40.400;17.260;2023-03-01T09:14:11;13.40;;;2.40;;
52946;SDS011;45776;40.400;17.260;2023-03-01T09:16:36;16.13;;;2.53;;
52946;SDS011;45776;40.400;17.260;2023-03-01T09:19:02;16.88;;;3.00;;
52946;SDS011;45776;40.400;17.260;2023-03-01T09:21:28;12.02;;;2.00;;
52946;SDS011;45776;40.400;17.260;2023-03-01T09:23:53;17.73;;;2.30;;
52946;SDS011;45776;40.400;17.260;2023-03-01T09:26:21;22.27;;;2.92;;
52946;SDS011;45776;40.400;17.260;2023-03-01T09:28:47;13.07;;;2.75;;
52946;SDS011;45776;40.400;17.260;2023-03-01T09:31:13;18.42;;;2.58;;
52946;SDS011;45776;40.400;17.260;2023-03-01T09:33:39;20.63;;;2.55;;
52946;SDS011;45776;40.400;17.260;2023-03-01T09:36:05;15.38;;;2.58;;
52946;SDS011;45776;40.400;17.260;2023-03-01T09:38:32;28.45;;;3.42;;
52946;SDS011;45776;40.400;17.260;2023-03-01T09:40:57;25.65;;;3.28;;
52946;SDS011;45776;40.400;17.260;2023-03-01T09:46:08;27.65;;;3.08;;
52946;SDS011;45776;40.400;17.260;2023-03-01T09:49:17;16.23;;;3.22;;
52946;SDS011;45776;40.400;17.260;2023-03-01T09:51:27;19.98;;;3.30;;
52946;SDS011;45776;40.400;17.260;2023-03-01T09:53:54;17.33;;;2.88;;
52946;SDS011;45776;40.400;17.260;2023-03-01T09:56:24;16.52;;;2.92;;
52946;SDS011;45776;40.400;17.260;2023-03-01T09:58:58;15.45;;;3.28;;
52946;SDS011;45776;40.400;17.260;2023-03-01T10:04:12;17.00;;;3.03;;
52946;SDS011;45776;40.400;17.260;2023-03-01T10:06:44;27.63;;;3.38;;
52946;SDS011;45776;40.400;17.260;2023-03-01T10:09:14;27.13;;;3.08;;
52946;SDS011;45776;40.400;17.260;2023-03-01T10:11:48;25.92;;;4.10;;
52946;SDS011;45776;40.400;17.260;2023-03-01T10:19:05;15.02;;;3.20;;
52946;SDS011;45776;40.400;17.260;2023-03-01T10:21:35;17.35;;;3.50;;
52946;SDS011;45776;40.400;17.260;2023-03-01T10:24:10;24.80;;;3.22;;
52946;SDS011;45776;40.400;17.260;2023-03-01T10:26:56;22.90;;;4.28;;
52946;SDS011;45776;40.400;17.260;2023-03-01T10:29:34;24.38;;;3.42;;
52946;SDS011;45776;40.400;17.260;2023-03-01T10:32:02;21.95;;;3.17;;
52946;SDS011;45776;40.400;17.260;2023-03-01T10:36:55;20.30;;;3.15;;
52946;SDS011;45776;40.400;17.260;2023-03-01T10:39:22;22.90;;;3.60;;
52946;SDS011;45776;40.400;17.260;2023-03-01T10:47:03;27.95;;;4.10;;
52946;SDS011;45776;40.400;17.260;2023-03-01T10:49:29;16.83;;;3.50;;
52946;SDS011;45776;40.400;17.260;2023-03-01T10:51:54;30.05;;;3.70;;
52946;SDS011;45776;40.400;17.260;2023-03-01T10:56:49;33.40;;;3.92;;
52946;SDS011;45776;40.400;17.260;2023-03-01T10:59:22;17.15;;;5.07;;
52946;SDS011;45776;40.400;17.260;2023-03-01T11:02:00;21.95;;;5.90;;
52946;SDS011;45776;40.400;17.260;2023-03-01T11:04:26;19.02;;;4.20;;
52946;SDS011;45776;40.400;17.260;2023-03-01T11:06:57;25.13;;;5.68;;
52946;SDS011;45776;40.400;17.260;2023-03-01T11:09:23;22.75;;;4.13;;
52946;SDS011;45776;40.400;17.260;2023-03-01T11:11:53;37.13;;;4.78;;
52946;SDS011;45776;40.400;17.260;2023-03-01T11:14:30;24.52;;;4.68;;
52946;SDS011;45776;40.400;17.260;2023-03-01T11:17:01;27.13;;;4.35;;
52946;SDS011;45776;40.400;17.260;2023-03-01T11:19:27;27.65;;;5.18;;
52946;SDS011;45776;40.400;17.260;2023-03-01T11:24:22;26.25;;;4.50;;
52946;SDS011;45776;40.400;17.260;2023-03-01T11:26:51;18.83;;;4.55;;
52946;SDS011;45776;40.400;17.260;2023-03-01T11:29:26;30.90;;;5.38;;
52946;SDS011;45776;40.400;17.260;2023-03-01T11:31:53;25.27;;;5.20;;
52946;SDS011;45776;40.400;17.260;2023-03-01T11:34:23;32.00;;;4.78;;
52946;SDS011;45776;40.400;17.260;2023-03-01T11:36:53;25.70;;;5.20;;
52946;SDS011;45776;40.400;17.260;2023-03-01T11:42:06;23.88;;;4.65;;
52946;SDS011;45776;40.400;17.260;2023-03-01T11:44:35;24.58;;;4.47;;
52946;SDS011;45776;40.400;17.260;2023-03-01T11:50:02;37.00;;;5.47;;
52946;SDS011;45776;40.400;17.260;2023-03-01T11:52:47;22.77;;;4.45;;
52946;SDS011;45776;40.400;17.260;2023-03-01T12:31:08;31.20;;;5.57;;
52946;SDS011;45776;40.400;17.260;2023-03-01T12:33:43;27.25;;;4.20;;
52946;SDS011;45776;40.400;17.260;2023-03-01T12:36:34;44.03;;;5.05;;
52946;SDS011;45776;40.400;17.260;2023-03-01T12:42:01;37.03;;;3.90;;
52946;SDS011;45776;40.400;17.260;2023-03-01T12:47:00;33.90;;;4.75;;
52946;SDS011;45776;40.400;17.260;2023-03-01T12:50:17;32.53;;;4.30;;
52946;SDS011;45776;40.400;17.260;2023-03-01T12:52:16;27.52;;;4.70;;
52946;SDS011;45776;40.400;17.260;2023-03-01T12:57:17;28.83;;;4.27;;
52946;SDS011;45776;40.400;17.260;2023-03-01T13:00:05;35.87;;;5.17;;
52946;SDS011;45776;40.400;17.260;2023-03-01T13:02:40;36.47;;;4.57;;
52946;SDS011;45776;40.400;17.260;2023-03-01T13:10:48;36.47;;;4.97;;
52946;SDS011;45776;40.400;17.260;2023-03-01T13:13:35;28.45;;;4.97;;
52946;SDS011;45776;40.400;17.260;2023-03-01T13:16:21;26.77;;;4.80;;
52946;SDS011;45776;40.400;17.260;2023-03-01T13:18:45;35.97;;;5.05;;
52946;SDS011;45776;40.400;17.260;2023-03-01T13:21:10;32.42;;;4.70;;
52946;SDS011;45776;40.400;17.260;2023-03-01T13:23:37;27.98;;;4.63;;
52946;SDS011;45776;40.400;17.260;2023-03-01T13:28:37;32.90;;;6.00;;
52946;SDS011;45776;40.400;17.260;2023-03-01T13:31:06;39.38;;;6.80;;
52946;SDS011;45776;40.400;17.260;2023-03-01T13:36:01;53.88;;;7.20;;
52946;SDS011;45776;40.400;17.260;2023-03-01T13:38:36;49.50;;;7.60;;
52946;SDS011;45776;40.400;17.260;2023-03-01T13:41:02;51.40;;;7.70;;
52946;SDS011;45776;40.400;17.260;2023-03-01T13:43:32;49.70;;;7.85;;
52946;SDS011;45776;40.400;17.260;2023-03-01T13:45:59;51.63;;;8.27;;
52946;SDS011;45776;40.400;17.260;2023-03-01T13:48:26;54.08;;;8.10;;
52946;SDS011;45776;40.400;17.260;2023-03-01T13:50:53;34.38;;;5.95;;
52946;SDS011;45776;40.400;17.260;2023-03-01T13:53:21;47.60;;;5.30;;
52946;SDS011;45776;40.400;17.260;2023-03-01T13:55:48;34.67;;;5.72;;
52946;SDS011;45776;40.400;17.260;2023-03-01T14:00:44;34.83;;;5.32;;
52946;SDS011;45776;40.400;17.260;2023-03-01T14:03:12;41.45;;;5.20;;
52946;SDS011;45776;40.400;17.260;2023-03-01T14:05:38;41.25;;;5.45;;
52946;SDS011;45776;40.400;17.260;2023-03-01T14:08:04;41.30;;;5.55;;
52946;SDS011;45776;40.400;17.260;2023-03-01T14:10:36;36.78;;;4.72;;
52946;SDS011;45776;40.400;17.260;2023-03-01T14:15:33;24.30;;;3.50;;
52946;SDS011;45776;40.400;17.260;2023-03-01T14:20:38;11.95;;;2.08;;
52946;SDS011;45776;40.400;17.260;2023-03-01T14:23:09;15.68;;;2.17;;
52946;SDS011;45776;40.400;17.260;2023-03-01T14:25:35;22.52;;;2.85;;
52946;SDS011;45776;40.400;17.260;2023-03-01T14:30:34;22.40;;;3.58;;
52946;SDS011;45776;40.400;17.260;2023-03-01T14:33:01;28.35;;;3.72;;
52946;SDS011;45776;40.400;17.260;2023-03-01T14:35:33;14.77;;;2.03;;
52946;SDS011;45776;40.400;17.260;2023-03-01T14:37:59;12.07;;;1.90;;
52946;SDS011;45776;40.400;17.260;2023-03-01T14:42:49;10.93;;;2.03;;
52946;SDS011;45776;40.400;17.260;2023-03-01T14:45:15;14.25;;;1.80;;
52946;SDS011;45776;40.400;17.260;2023-03-01T14:47:41;9.88;;;1.70;;
52946;SDS011;45776;40.400;17.260;2023-03-01T14:52:44;19.27;;;2.13;;
52946;SDS011;45776;40.400;17.260;2023-03-01T14:55:15;12.27;;;2.10;;
52946;SDS011;45776;40.400;17.260;2023-03-01T14:57:44;21.63;;;2.53;;
52946;SDS011;45776;40.400;17.260;2023-03-01T15:00:16;20.75;;;2.45;;
52946;SDS011;45776;40.400;17.260;2023-03-01T15:02:42;23.00;;;2.78;;
52946;SDS011;45776;40.400;17.260;2023-03-01T15:05:08;23.15;;;2.92;;
52946;SDS011;45776;40.400;17.260;2023-03-01T15:07:35;18.05;;;2.40;;
52946;SDS011;45776;40.400;17.260;2023-03-01T15:10:02;13.68;;;1.80;;
52946;SDS011;45776;40.400;17.260;2023-03-01T15:14:54;22.20;;;2.97;;
52946;SDS011;45776;40.400;17.260;2023-03-01T15:17:21;17.50;;;2.45;;
52946;SDS011;45776;40.400;17.260;2023-03-01T15:19:49;19.83;;;2.55;;
52946;SDS011;45776;40.400;17.260;2023-03-01T15:22:15;29.75;;;3.38;;
52946;SDS011;45776;40.400;17.260;2023-03-01T15:24:40;20.42;;;3.10;;
52946;SDS011;45776;40.400;17.260;2023-03-01T15:27:12;28.98;;;3.03;;
52946;SDS011;45776;40.400;17.260;2023-03-01T15:29:39;23.08;;;3.40;;
52946;SDS011;45776;40.400;17.260;2023-03-01T15:32:06;27.80;;;3.28;;
52946;SDS011;45776;40.400;17.260;2023-03-01T15:34:46;24.90;;;3.53;;
52946;SDS011;45776;40.400;17.260;2023-03-01T15:39:57;19.73;;;2.72;;
52946;SDS011;45776;40.400;17.260;2023-03-01T15:47:39;31.58;;;3.30;;
52946;SDS011;45776;40.400;17.260;2023-03-01T15:50:05;39.83;;;4.45;;
52946;SDS011;45776;40.400;17.260;2023-03-01T15:52:41;35.17;;;4.05;;
52946;SDS011;45776;40.400;17.260;2023-03-01T15:55:18;24.80;;;3.40;;
52946;SDS011;45776;40.400;17.260;2023-03-01T15:57:43;32.72;;;3.83;;
52946;SDS011;45776;40.400;17.260;2023-03-01T16:00:09;29.17;;;3.70;;
52946;SDS011;45776;40.400;17.260;2023-03-01T16:02:38;21.27;;;3.15;;
52946;SDS011;45776;40.400;17.260;2023-03-01T16:05:04;28.38;;;3.28;;
52946;SDS011;45776;40.400;17.260;2023-03-01T16:07:29;25.17;;;2.90;;
52946;SDS011;45776;40.400;17.260;2023-03-01T16:09:56;32.13;;;3.92;;
52946;SDS011;45776;40.400;17.260;2023-03-01T16:12:21;30.45;;;3.33;;
52946;SDS011;45776;40.400;17.260;2023-03-01T16:14:46;25.05;;;3.50;;
52946;SDS011;45776;40.400;17.260;2023-03-01T16:17:13;23.25;;;3.35;;
52946;SDS011;45776;40.400;17.260;2023-03-01T16:19:38;42.78;;;3.67;;
52946;SDS011;45776;40.400;17.260;2023-03-01T16:22:04;25.15;;;3.40;;
52946;SDS011;45776;40.400;17.260;2023-03-01T16:24:29;40.33;;;3.60;;